Bruce Mines, Canada
Current Conditions -  °F | °C
As of 4:14 AM on Friday 31 Oct 2014 (Local Time) from KDRM Reporting Station
Light Rain Light Rain  
Wind Chill: 28°   Ceiling: 1100
Heat Index: 36°   Visibility: 7mi
Dew Point: 35°   Wind: 12mph
Humidity: 97%   Direction: 20°NNE
Pressure: 29.91"   Gusts: 20mph
Location:  46.3°N, 83.79°W
Report Text: KDRM 310814Z AUTO 02010G17KT 7SM -RA OVC011 02/02 A2991 RMK AO2 T00200015
Loading
Personal Weather Stations






























Interactive Weather Map New forecast layout! Learn more

10-Day Weather Forecast

Advertisements
Track Severe Weather on mobile